OEMO2: Okemah Hwy 56

Data processed at Thu May 23 2019 23:50


All information presented herein is the property of the government of the United States of America and may be revised or deleted at any time without prior notice.
Dissemination of this information without the expressed written consent of the Public Affairs Office, Tulsa District U.S. Army Corps of Engineers is strictly prohibited.
These data are gathered electronically and, as presented, have not undergone any form of quality control. These data are not guaranteed to be valid or correct.
Go to home page.
Go to station list.
Go to home page.

Upstream stations:

Downstream station:
Previous Day
Next Day
Current Day
    
SHEF ID:       OEMO2     Okemah Hwy 56
STATION TYPE:  

               PRECIP     STAGE  RIV-FLOW   VOLTAGE  BAT-LOAD
                   in        ft       cfs      volt      volt
              Ccp-Rev   Ccp-Rev   Ccp-Rev   Ccp-Rev   Ccp-Rev
(US/Central)
05/23 00:00      0.00     16.93      8736     12.73     12.65
05/23 01:00      0.00     16.98      8805     12.73     12.57
05/23 02:00      0.00     17.00      8832     12.65     12.65
05/23 03:00      0.00     17.01      8846     12.65     12.57
05/23 04:00      0.00     17.10      8971     12.65     12.57
05/23 05:00      0.00     17.11      8984     12.65     12.57
05/23 06:00      0.00     17.10      8971     12.65     12.57
05/23 07:00      0.00     17.15      9040     12.65     12.57
05/23 08:00      0.00     17.09      8957     12.81     12.65
05/23 09:00      0.00     17.23      9152     13.29     13.05
05/23 10:00      0.00     17.23      9152     13.29     13.21
05/23 11:00      0.00     17.27      9207     14.00     13.44
05/23 12:00      0.00     17.34      9306     13.53     13.29
05/23 13:00      0.00     17.39      9376     13.44     13.29
05/23 14:00      0.00     17.42      9418     13.37     13.37
05/23 15:00      0.00     17.36      9334     13.68     13.21
05/23 16:00      0.00     17.44      9447     14.00     13.21
05/23 17:00      0.00     17.44      9447     13.76     13.13
05/23 18:00      0.00     17.51      9546     14.08     13.21
05/23 19:00      0.00     17.55      9602     13.13     13.05
05/23 20:00      0.00     17.59      9659     12.97     12.97
05/23 21:00      0.00     17.52      9560     12.81     12.73
05/23 22:00      0.00     17.56      9617     12.73     12.65
05/23 23:00      0.00     17.60      9674     12.73     12.65